Billings, MT

6:15 AM MDT on September 20, 2014 (GMT -0600)
Downtown Billings | Change Station
CLOSE
Current Station
Personal Weather Station
Location: Billings, MT
Elevation: 3127 ft
Nearby Weather Stations

Elev 3127 ft 45.78 °N, 108.50 °W | Updated 17 minutes ago

Partly Cloudy
Partly Cloudy
51.0 °F
Feels Like 51.0 °F
N
4.5
Wind Variable Wind from South
Gusts 7.8 mph

Today
High -- | Low -- °F
--% Chance of Precip.
Yesterday
High -- | Low -- °F
Precip. -- in
6:58 AM 7:15 PM
Waning Crescent, 12% visible
Pressure 30.09 in
Visibility 10.0 miles
Clouds Clear
Dew Point 46 °F
Humidity 84%
Rainfall -999.00 in
Snow Depth 1 in , 0 in , 0 in
UV 0 out of 12
Pollen 5.30 out of 12
Air Quality Not available.
Flu Activity Not available.
METAR KBIL 201153Z 23010KT 10SM CLR 13/05 A3015 RMK AO2 SLP188 T01280050 10156 20122 53017

More Conditions Fewer Conditions

Pressure 30.09 in
Visibility 10.0 miles
Clouds Clear
Dew Point 46 °F
Humidity 84%
Rainfall -999.00 in
Snow Depth 1 in , 0 in , 0 in
UV 0 out of 12
Pollen 5.30 out of 12
Air Quality Not available.
Flu Activity Not available.
METAR KBIL 201153Z 23010KT 10SM CLR 13/05 A3015 RMK AO2 SLP188 T01280050 10156 20122 53017

More Conditions Fewer Conditions

10-Day Weather Forecast

Almanac

Astronomy

Sep. 20, 2014 Rise Set
Actual Time 6:58 AM MDT 7:15 PM MDT
Civil Twilight 6:28 AM MDT 7:44 PM MDT
Nautical Twilight 5:53 AM MDT 8:19 PM MDT
Astronomical Twilight 5:17 AM MDT 8:55 PM MDT
Moon 3:32 AM MDT 5:27 PM MDT
Length of Visible Light 13h 16m
Length of Day
12h 16m
Tomorrow will be 3m 12s shorter.
Waning Crescent, 12% of the Moon is Illuminated
Today
Waning Crescent
Sep 24
New
Oct 1
First Quarter
Oct 8
Full
Oct 15
Last Quarter

Today's Extremes

State Highs State Lows

Community

WunderPhotos

Upload Photos

1,754,840 photos uploaded!

Nearby

Snow Depth

Station Depth Elevation
Brackett Creek 1 in 7320 ft
Daisy Peak 0 in 7600 ft
Many Glacier 0 in 4900 ft
Stuart Mountain 0 in 7400 ft
Short Creek 0 in 7000 ft

Earthquake Activity

City Distance Mag. Time & Date
No recent earthquake activity has been reported nearby.
Minimum magnitude displayed is 2.5.

Coastal Water Temperatures

Place Temperature
No Stations Reporting

Nearby Weather Stations